sensor_id;sensor_type;location;lat;lon;timestamp;P1;durP1;ratioP1;P2;durP2;ratioP2
8397;SDS011;4236;54.504;9.588;2023-04-15T00:02:15;315.93;;;301.27;;
8397;SDS011;4236;54.504;9.588;2023-04-15T00:04:44;300.43;;;286.53;;
8397;SDS011;4236;54.504;9.588;2023-04-15T00:07:13;382.27;;;361.93;;
8397;SDS011;4236;54.504;9.588;2023-04-15T00:09:41;461.37;;;432.50;;
8397;SDS011;4236;54.504;9.588;2023-04-15T00:12:09;478.60;;;446.20;;
8397;SDS011;4236;54.504;9.588;2023-04-15T00:14:37;477.70;;;442.60;;
8397;SDS011;4236;54.504;9.588;2023-04-15T00:17:05;509.23;;;473.43;;
8397;SDS011;4236;54.504;9.588;2023-04-15T00:19:34;509.67;;;473.70;;
8397;SDS011;4236;54.504;9.588;2023-04-15T00:22:03;505.43;;;469.83;;
8397;SDS011;4236;54.504;9.588;2023-04-15T00:24:32;468.00;;;435.00;;
8397;SDS011;4236;54.504;9.588;2023-04-15T00:26:59;457.73;;;427.73;;
8397;SDS011;4236;54.504;9.588;2023-04-15T00:29:27;447.33;;;417.83;;
8397;SDS011;4236;54.504;9.588;2023-04-15T00:31:56;453.80;;;426.10;;
8397;SDS011;4236;54.504;9.588;2023-04-15T00:34:24;455.83;;;428.30;;
8397;SDS011;4236;54.504;9.588;2023-04-15T00:36:55;444.10;;;418.20;;
8397;SDS011;4236;54.504;9.588;2023-04-15T00:39:23;455.93;;;429.07;;
8397;SDS011;4236;54.504;9.588;2023-04-15T00:41:51;456.57;;;427.27;;
8397;SDS011;4236;54.504;9.588;2023-04-15T00:44:19;470.50;;;438.90;;
8397;SDS011;4236;54.504;9.588;2023-04-15T00:46:47;461.70;;;431.20;;
8397;SDS011;4236;54.504;9.588;2023-04-15T00:49:18;469.83;;;438.33;;
8397;SDS011;4236;54.504;9.588;2023-04-15T00:51:46;472.23;;;439.90;;
8397;SDS011;4236;54.504;9.588;2023-04-15T00:54:15;461.07;;;430.37;;
8397;SDS011;4236;54.504;9.588;2023-04-15T00:56:43;453.53;;;421.13;;
8397;SDS011;4236;54.504;9.588;2023-04-15T00:59:11;450.73;;;418.90;;
8397;SDS011;4236;54.504;9.588;2023-04-15T01:01:40;449.93;;;418.60;;
8397;SDS011;4236;54.504;9.588;2023-04-15T01:04:10;438.97;;;408.80;;
8397;SDS011;4236;54.504;9.588;2023-04-15T01:06:38;445.40;;;416.40;;
8397;SDS011;4236;54.504;9.588;2023-04-15T01:09:06;433.00;;;405.77;;
8397;SDS011;4236;54.504;9.588;2023-04-15T01:11:35;422.40;;;395.40;;
8397;SDS011;4236;54.504;9.588;2023-04-15T01:14:02;406.53;;;381.43;;
8397;SDS011;4236;54.504;9.588;2023-04-15T01:16:31;398.53;;;373.93;;
8397;SDS011;4236;54.504;9.588;2023-04-15T01:18:58;392.40;;;368.73;;
8397;SDS011;4236;54.504;9.588;2023-04-15T01:21:27;407.63;;;384.07;;
8397;SDS011;4236;54.504;9.588;2023-04-15T01:23:55;402.67;;;380.03;;
8397;SDS011;4236;54.504;9.588;2023-04-15T01:26:25;375.70;;;355.90;;
8397;SDS011;4236;54.504;9.588;2023-04-15T01:28:53;376.57;;;356.30;;
8397;SDS011;4236;54.504;9.588;2023-04-15T01:31:21;404.93;;;381.30;;
8397;SDS011;4236;54.504;9.588;2023-04-15T01:33:49;410.90;;;387.60;;
8397;SDS011;4236;54.504;9.588;2023-04-15T01:36:17;391.07;;;370.07;;
8397;SDS011;4236;54.504;9.588;2023-04-15T01:38:44;355.03;;;336.90;;
8397;SDS011;4236;54.504;9.588;2023-04-15T01:41:12;371.73;;;352.50;;
8397;SDS011;4236;54.504;9.588;2023-04-15T01:43:42;319.30;;;303.40;;
8397;SDS011;4236;54.504;9.588;2023-04-15T01:46:09;376.67;;;357.60;;
8397;SDS011;4236;54.504;9.588;2023-04-15T01:48:38;304.43;;;289.27;;
8397;SDS011;4236;54.504;9.588;2023-04-15T01:51:05;346.27;;;329.30;;
8397;SDS011;4236;54.504;9.588;2023-04-15T01:53:33;298.43;;;283.67;;
8397;SDS011;4236;54.504;9.588;2023-04-15T01:56:01;351.67;;;334.93;;
8397;SDS011;4236;54.504;9.588;2023-04-15T01:58:28;256.23;;;243.67;;
8397;SDS011;4236;54.504;9.588;2023-04-15T02:00:57;329.63;;;313.40;;
8397;SDS011;4236;54.504;9.588;2023-04-15T02:03:25;296.50;;;281.67;;
8397;SDS011;4236;54.504;9.588;2023-04-15T02:05:54;310.03;;;295.63;;
8397;SDS011;4236;54.504;9.588;2023-04-15T02:08:22;294.37;;;279.37;;
8397;SDS011;4236;54.504;9.588;2023-04-15T02:10:50;324.67;;;308.93;;
8397;SDS011;4236;54.504;9.588;2023-04-15T02:13:18;303.80;;;289.13;;
8397;SDS011;4236;54.504;9.588;2023-04-15T02:15:46;316.70;;;301.47;;
8397;SDS011;4236;54.504;9.588;2023-04-15T02:18:16;283.13;;;269.60;;
8397;SDS011;4236;54.504;9.588;2023-04-15T02:20:44;278.80;;;265.63;;
8397;SDS011;4236;54.504;9.588;2023-04-15T02:23:12;304.80;;;290.30;;
8397;SDS011;4236;54.504;9.588;2023-04-15T02:25:40;283.80;;;269.47;;
8397;SDS011;4236;54.504;9.588;2023-04-15T02:28:18;291.10;;;277.30;;
8397;SDS011;4236;54.504;9.588;2023-04-15T02:30:46;294.20;;;279.77;;
8397;SDS011;4236;54.504;9.588;2023-04-15T02:33:17;288.83;;;275.47;;
8397;SDS011;4236;54.504;9.588;2023-04-15T02:35:45;293.27;;;278.90;;
8397;SDS011;4236;54.504;9.588;2023-04-15T02:38:12;288.93;;;274.83;;
8397;SDS011;4236;54.504;9.588;2023-04-15T02:40:42;304.90;;;290.37;;
8397;SDS011;4236;54.504;9.588;2023-04-15T02:43:10;277.13;;;264.10;;
8397;SDS011;4236;54.504;9.588;2023-04-15T02:45:37;286.77;;;273.10;;
8397;SDS011;4236;54.504;9.588;2023-04-15T02:48:05;312.27;;;296.87;;
8397;SDS011;4236;54.504;9.588;2023-04-15T02:50:34;291.33;;;277.40;;
8397;SDS011;4236;54.504;9.588;2023-04-15T02:53:03;295.83;;;282.00;;
8397;SDS011;4236;54.504;9.588;2023-04-15T02:55:31;290.03;;;276.83;;
8397;SDS011;4236;54.504;9.588;2023-04-15T02:57:59;289.67;;;276.70;;
8397;SDS011;4236;54.504;9.588;2023-04-15T03:00:27;261.33;;;249.63;;
8397;SDS011;4236;54.504;9.588;2023-04-15T03:02:56;238.83;;;228.13;;
8397;SDS011;4236;54.504;9.588;2023-04-15T03:05:26;211.90;;;202.60;;
8397;SDS011;4236;54.504;9.588;2023-04-15T03:07:55;158.17;;;150.63;;
8397;SDS011;4236;54.504;9.588;2023-04-15T03:10:23;94.67;;;89.13;;
8397;SDS011;4236;54.504;9.588;2023-04-15T03:12:50;62.00;;;57.63;;
8397;SDS011;4236;54.504;9.588;2023-04-15T03:15:18;64.80;;;59.60;;
8397;SDS011;4236;54.504;9.588;2023-04-15T03:17:46;55.67;;;51.50;;
8397;SDS011;4236;54.504;9.588;2023-04-15T03:20:14;56.00;;;51.80;;
8397;SDS011;4236;54.504;9.588;2023-04-15T03:22:42;61.87;;;57.47;;
8397;SDS011;4236;54.504;9.588;2023-04-15T03:25:12;61.77;;;57.40;;
8397;SDS011;4236;54.504;9.588;2023-04-15T03:27:40;59.17;;;54.93;;
8397;SDS011;4236;54.504;9.588;2023-04-15T03:30:08;72.13;;;67.60;;
8397;SDS011;4236;54.504;9.588;2023-04-15T03:32:36;62.77;;;57.80;;
8397;SDS011;4236;54.504;9.588;2023-04-15T03:35:04;65.90;;;61.10;;
8397;SDS011;4236;54.504;9.588;2023-04-15T03:37:32;69.20;;;64.57;;
8397;SDS011;4236;54.504;9.588;2023-04-15T03:40:00;65.40;;;61.00;;
8397;SDS011;4236;54.504;9.588;2023-04-15T03:42:29;62.43;;;57.90;;
8397;SDS011;4236;54.504;9.588;2023-04-15T03:44:58;67.57;;;62.60;;
8397;SDS011;4236;54.504;9.588;2023-04-15T03:47:25;69.90;;;65.50;;
8397;SDS011;4236;54.504;9.588;2023-04-15T03:49:53;81.20;;;75.70;;
8397;SDS011;4236;54.504;9.588;2023-04-15T03:52:21;89.13;;;83.33;;
8397;SDS011;4236;54.504;9.588;2023-04-15T03:54:48;102.50;;;96.90;;
8397;SDS011;4236;54.504;9.588;2023-04-15T03:57:16;102.07;;;96.37;;
8397;SDS011;4236;54.504;9.588;2023-04-15T03:59:45;97.00;;;91.20;;
8397;SDS011;4236;54.504;9.588;2023-04-15T04:02:13;122.57;;;115.57;;
8397;SDS011;4236;54.504;9.588;2023-04-15T04:04:40;139.30;;;132.37;;
8397;SDS011;4236;54.504;9.588;2023-04-15T04:07:13;141.17;;;133.90;;
8397;SDS011;4236;54.504;9.588;2023-04-15T04:09:41;122.80;;;116.23;;
8397;SDS011;4236;54.504;9.588;2023-04-15T04:12:12;170.10;;;161.87;;
8397;SDS011;4236;54.504;9.588;2023-04-15T04:14:40;231.10;;;220.80;;
8397;SDS011;4236;54.504;9.588;2023-04-15T04:17:09;187.53;;;177.90;;
8397;SDS011;4236;54.504;9.588;2023-04-15T04:19:37;301.10;;;286.50;;
8397;SDS011;4236;54.504;9.588;2023-04-15T04:22:04;305.70;;;291.10;;
8397;SDS011;4236;54.504;9.588;2023-04-15T04:24:32;311.77;;;296.50;;
8397;SDS011;4236;54.504;9.588;2023-04-15T04:27:00;320.07;;;304.53;;
8397;SDS011;4236;54.504;9.588;2023-04-15T04:29:27;337.47;;;320.50;;
8397;SDS011;4236;54.504;9.588;2023-04-15T04:31:55;330.07;;;312.57;;
8397;SDS011;4236;54.504;9.588;2023-04-15T04:34:24;346.37;;;328.37;;
8397;SDS011;4236;54.504;9.588;2023-04-15T04:36:52;296.97;;;281.83;;
8397;SDS011;4236;54.504;9.588;2023-04-15T04:39:20;289.37;;;275.47;;
8397;SDS011;4236;54.504;9.588;2023-04-15T04:41:48;296.50;;;282.30;;
8397;SDS011;4236;54.504;9.588;2023-04-15T04:44:17;349.10;;;330.83;;
8397;SDS011;4236;54.504;9.588;2023-04-15T04:46:45;299.93;;;284.63;;
8397;SDS011;4236;54.504;9.588;2023-04-15T04:49:13;322.00;;;305.90;;
8397;SDS011;4236;54.504;9.588;2023-04-15T04:51:42;319.20;;;303.00;;
8397;SDS011;4236;54.504;9.588;2023-04-15T04:54:10;282.90;;;268.70;;
8397;SDS011;4236;54.504;9.588;2023-04-15T04:56:38;304.10;;;289.57;;
8397;SDS011;4236;54.504;9.588;2023-04-15T04:59:06;283.67;;;269.67;;
8397;SDS011;4236;54.504;9.588;2023-04-15T05:01:34;254.77;;;241.93;;
8397;SDS011;4236;54.504;9.588;2023-04-15T05:04:02;249.47;;;236.10;;
8397;SDS011;4236;54.504;9.588;2023-04-15T05:06:31;302.60;;;287.20;;
8397;SDS011;4236;54.504;9.588;2023-04-15T05:09:00;297.30;;;281.70;;
8397;SDS011;4236;54.504;9.588;2023-04-15T05:11:28;258.47;;;245.13;;
8397;SDS011;4236;54.504;9.588;2023-04-15T05:13:56;308.07;;;293.27;;
8397;SDS011;4236;54.504;9.588;2023-04-15T05:16:24;282.47;;;268.30;;
8397;SDS011;4236;54.504;9.588;2023-04-15T05:18:52;275.63;;;262.23;;
8397;SDS011;4236;54.504;9.588;2023-04-15T05:21:20;278.83;;;265.53;;
8397;SDS011;4236;54.504;9.588;2023-04-15T05:23:48;258.53;;;245.93;;
8397;SDS011;4236;54.504;9.588;2023-04-15T05:26:17;238.07;;;226.17;;
8397;SDS011;4236;54.504;9.588;2023-04-15T05:28:45;245.07;;;233.37;;
8397;SDS011;4236;54.504;9.588;2023-04-15T05:31:13;209.77;;;199.07;;
8397;SDS011;4236;54.504;9.588;2023-04-15T05:33:40;251.57;;;238.90;;
8397;SDS011;4236;54.504;9.588;2023-04-15T05:36:08;217.53;;;206.53;;
8397;SDS011;4236;54.504;9.588;2023-04-15T05:38:37;244.17;;;232.20;;
8397;SDS011;4236;54.504;9.588;2023-04-15T05:41:04;230.37;;;218.47;;
8397;SDS011;4236;54.504;9.588;2023-04-15T05:43:34;246.50;;;233.50;;
8397;SDS011;4236;54.504;9.588;2023-04-15T05:46:01;242.10;;;229.20;;
8397;SDS011;4236;54.504;9.588;2023-04-15T05:48:29;253.13;;;239.83;;
8397;SDS011;4236;54.504;9.588;2023-04-15T05:50:57;223.30;;;211.23;;
8397;SDS011;4236;54.504;9.588;2023-04-15T05:53:24;226.97;;;214.47;;
8397;SDS011;4236;54.504;9.588;2023-04-15T05:55:52;208.77;;;196.60;;
8397;SDS011;4236;54.504;9.588;2023-04-15T05:58:20;173.37;;;161.57;;
8397;SDS011;4236;54.504;9.588;2023-04-15T06:00:49;178.37;;;167.73;;
8397;SDS011;4236;54.504;9.588;2023-04-15T06:03:17;124.50;;;115.90;;
8397;SDS011;4236;54.504;9.588;2023-04-15T06:05:45;69.40;;;62.23;;
8397;SDS011;4236;54.504;9.588;2023-04-15T06:08:13;66.67;;;60.07;;
8397;SDS011;4236;54.504;9.588;2023-04-15T06:10:41;65.03;;;57.93;;
8397;SDS011;4236;54.504;9.588;2023-04-15T06:13:08;83.30;;;63.83;;
8397;SDS011;4236;54.504;9.588;2023-04-15T06:15:36;88.63;;;60.47;;
8397;SDS011;4236;54.504;9.588;2023-04-15T06:18:05;84.90;;;61.10;;
8397;SDS011;4236;54.504;9.588;2023-04-15T06:20:33;90.63;;;63.00;;
8397;SDS011;4236;54.504;9.588;2023-04-15T06:23:01;72.07;;;63.27;;
8397;SDS011;4236;54.504;9.588;2023-04-15T06:25:29;84.40;;;64.77;;
8397;SDS011;4236;54.504;9.588;2023-04-15T06:27:57;87.90;;;62.23;;
8397;SDS011;4236;54.504;9.588;2023-04-15T06:30:24;76.97;;;62.50;;
8397;SDS011;4236;54.504;9.588;2023-04-15T06:32:52;79.83;;;63.70;;
8397;SDS011;4236;54.504;9.588;2023-04-15T06:35:22;82.70;;;62.60;;
8397;SDS011;4236;54.504;9.588;2023-04-15T06:37:50;84.70;;;68.10;;
8397;SDS011;4236;54.504;9.588;2023-04-15T06:40:18;93.60;;;69.97;;
8397;SDS011;4236;54.504;9.588;2023-04-15T06:42:45;87.63;;;70.40;;
8397;SDS011;4236;54.504;9.588;2023-04-15T06:45:13;87.33;;;77.87;;
8397;SDS011;4236;54.504;9.588;2023-04-15T06:47:41;95.77;;;79.60;;
8397;SDS011;4236;54.504;9.588;2023-04-15T06:50:09;108.83;;;78.67;;
8397;SDS011;4236;54.504;9.588;2023-04-15T06:52:38;101.23;;;76.10;;
8397;SDS011;4236;54.504;9.588;2023-04-15T06:55:06;92.50;;;74.13;;
8397;SDS011;4236;54.504;9.588;2023-04-15T06:57:35;82.60;;;69.43;;
8397;SDS011;4236;54.504;9.588;2023-04-15T07:00:02;97.03;;;74.00;;
8397;SDS011;4236;54.504;9.588;2023-04-15T07:02:31;98.77;;;72.40;;
8397;SDS011;4236;54.504;9.588;2023-04-15T07:04:58;98.80;;;71.67;;
8397;SDS011;4236;54.504;9.588;2023-04-15T07:07:26;96.07;;;70.87;;
8397;SDS011;4236;54.504;9.588;2023-04-15T07:09:55;89.23;;;69.30;;
8397;SDS011;4236;54.504;9.588;2023-04-15T07:12:23;81.57;;;63.70;;
8397;SDS011;4236;54.504;9.588;2023-04-15T07:14:51;86.07;;;66.37;;
8397;SDS011;4236;54.504;9.588;2023-04-15T07:17:18;94.63;;;62.63;;
8397;SDS011;4236;54.504;9.588;2023-04-15T07:19:46;89.67;;;68.30;;
8397;SDS011;4236;54.504;9.588;2023-04-15T07:22:14;94.30;;;63.97;;
8397;SDS011;4236;54.504;9.588;2023-04-15T07:24:42;71.73;;;60.90;;
8397;SDS011;4236;54.504;9.588;2023-04-15T07:27:11;78.03;;;59.33;;
8397;SDS011;4236;54.504;9.588;2023-04-15T07:29:38;63.70;;;56.30;;
8397;SDS011;4236;54.504;9.588;2023-04-15T07:32:06;71.63;;;58.00;;
8397;SDS011;4236;54.504;9.588;2023-04-15T07:34:35;61.03;;;53.37;;
8397;SDS011;4236;54.504;9.588;2023-04-15T07:37:03;63.03;;;54.40;;
8397;SDS011;4236;54.504;9.588;2023-04-15T07:39:31;58.60;;;52.30;;
8397;SDS011;4236;54.504;9.588;2023-04-15T07:41:58;60.70;;;53.03;;
8397;SDS011;4236;54.504;9.588;2023-04-15T07:44:28;60.63;;;52.77;;
8397;SDS011;4236;54.504;9.588;2023-04-15T07:46:56;66.13;;;53.43;;
8397;SDS011;4236;54.504;9.588;2023-04-15T07:49:24;61.10;;;52.97;;
8397;SDS011;4236;54.504;9.588;2023-04-15T07:51:52;63.67;;;55.90;;
8397;SDS011;4236;54.504;9.588;2023-04-15T07:54:20;68.70;;;52.57;;
8397;SDS011;4236;54.504;9.588;2023-04-15T07:56:47;60.63;;;52.57;;
8397;SDS011;4236;54.504;9.588;2023-04-15T07:59:16;62.50;;;55.70;;
8397;SDS011;4236;54.504;9.588;2023-04-15T08:01:45;61.20;;;54.50;;
8397;SDS011;4236;54.504;9.588;2023-04-15T08:04:13;58.83;;;52.53;;
8397;SDS011;4236;54.504;9.588;2023-04-15T08:06:41;56.57;;;50.67;;
8397;SDS011;4236;54.504;9.588;2023-04-15T08:09:09;58.80;;;52.50;;
8397;SDS011;4236;54.504;9.588;2023-04-15T08:11:37;59.60;;;53.40;;
8397;SDS011;4236;54.504;9.588;2023-04-15T08:14:04;56.00;;;50.10;;
8397;SDS011;4236;54.504;9.588;2023-04-15T08:16:32;61.40;;;49.30;;
8397;SDS011;4236;54.504;9.588;2023-04-15T08:19:01;55.60;;;49.83;;
8397;SDS011;4236;54.504;9.588;2023-04-15T08:21:30;54.73;;;48.97;;
8397;SDS011;4236;54.504;9.588;2023-04-15T08:23:57;53.23;;;47.83;;
8397;SDS011;4236;54.504;9.588;2023-04-15T08:26:26;54.77;;;48.97;;
8397;SDS011;4236;54.504;9.588;2023-04-15T08:28:54;57.77;;;50.17;;
8397;SDS011;4236;54.504;9.588;2023-04-15T08:31:22;50.30;;;45.70;;
8397;SDS011;4236;54.504;9.588;2023-04-15T08:33:50;54.63;;;49.03;;
8397;SDS011;4236;54.504;9.588;2023-04-15T08:36:21;50.30;;;45.50;;
8397;SDS011;4236;54.504;9.588;2023-04-15T08:38:48;54.20;;;48.10;;
8397;SDS011;4236;54.504;9.588;2023-04-15T08:41:18;52.33;;;47.40;;
8397;SDS011;4236;54.504;9.588;2023-04-15T08:43:51;53.93;;;48.17;;
8397;SDS011;4236;54.504;9.588;2023-04-15T08:46:20;52.93;;;47.20;;
8397;SDS011;4236;54.504;9.588;2023-04-15T08:48:48;49.40;;;44.97;;
8397;SDS011;4236;54.504;9.588;2023-04-15T08:51:17;50.57;;;45.67;;
8397;SDS011;4236;54.504;9.588;2023-04-15T08:53:46;49.90;;;45.13;;
8397;SDS011;4236;54.504;9.588;2023-04-15T08:56:15;52.80;;;47.43;;
8397;SDS011;4236;54.504;9.588;2023-04-15T08:58:45;52.63;;;47.30;;
8397;SDS011;4236;54.504;9.588;2023-04-15T09:01:14;53.07;;;48.00;;
8397;SDS011;4236;54.504;9.588;2023-04-15T09:03:42;52.17;;;46.90;;
8397;SDS011;4236;54.504;9.588;2023-04-15T09:06:10;54.13;;;48.67;;
8397;SDS011;4236;54.504;9.588;2023-04-15T09:08:38;51.03;;;46.50;;
8397;SDS011;4236;54.504;9.588;2023-04-15T09:11:07;53.73;;;48.47;;
8397;SDS011;4236;54.504;9.588;2023-04-15T09:13:35;51.93;;;46.70;;
8397;SDS011;4236;54.504;9.588;2023-04-15T09:16:04;52.10;;;46.97;;
8397;SDS011;4236;54.504;9.588;2023-04-15T09:18:34;50.17;;;45.60;;
8397;SDS011;4236;54.504;9.588;2023-04-15T09:21:03;48.97;;;44.37;;
8397;SDS011;4236;54.504;9.588;2023-04-15T09:23:34;50.67;;;45.80;;
8397;SDS011;4236;54.504;9.588;2023-04-15T09:26:03;51.50;;;46.70;;
8397;SDS011;4236;54.504;9.588;2023-04-15T09:28:33;49.53;;;44.43;;
8397;SDS011;4236;54.504;9.588;2023-04-15T09:31:08;46.27;;;42.27;;
8397;SDS011;4236;54.504;9.588;2023-04-15T09:33:53;46.13;;;42.07;;
8397;SDS011;4236;54.504;9.588;2023-04-15T09:36:21;49.27;;;44.73;;
8397;SDS011;4236;54.504;9.588;2023-04-15T09:38:53;46.43;;;42.00;;
8397;SDS011;4236;54.504;9.588;2023-04-15T09:41:22;47.27;;;42.90;;
8397;SDS011;4236;54.504;9.588;2023-04-15T09:43:51;49.80;;;45.33;;
8397;SDS011;4236;54.504;9.588;2023-04-15T09:46:19;46.30;;;41.70;;
8397;SDS011;4236;54.504;9.588;2023-04-15T09:48:47;46.60;;;42.33;;
8397;SDS011;4236;54.504;9.588;2023-04-15T09:51:34;46.70;;;42.63;;
8397;SDS011;4236;54.504;9.588;2023-04-15T09:54:02;47.60;;;43.20;;
8397;SDS011;4236;54.504;9.588;2023-04-15T09:56:31;46.33;;;42.23;;
8397;SDS011;4236;54.504;9.588;2023-04-15T09:59:02;44.97;;;40.97;;
8397;SDS011;4236;54.504;9.588;2023-04-15T10:01:32;46.17;;;42.47;;
8397;SDS011;4236;54.504;9.588;2023-04-15T10:04:00;49.53;;;44.67;;
8397;SDS011;4236;54.504;9.588;2023-04-15T10:06:30;47.97;;;43.77;;
8397;SDS011;4236;54.504;9.588;2023-04-15T10:08:58;47.13;;;43.00;;
8397;SDS011;4236;54.504;9.588;2023-04-15T10:11:27;47.43;;;42.93;;
8397;SDS011;4236;54.504;9.588;2023-04-15T10:13:57;46.77;;;42.90;;
8397;SDS011;4236;54.504;9.588;2023-04-15T10:16:27;45.40;;;41.50;;
8397;SDS011;4236;54.504;9.588;2023-04-15T10:18:56;43.50;;;39.90;;
8397;SDS011;4236;54.504;9.588;2023-04-15T10:21:24;45.23;;;41.57;;
8397;SDS011;4236;54.504;9.588;2023-04-15T10:23:54;42.77;;;39.07;;
8397;SDS011;4236;54.504;9.588;2023-04-15T10:26:22;44.57;;;40.43;;
8397;SDS011;4236;54.504;9.588;2023-04-15T10:28:50;41.83;;;38.43;;
8397;SDS011;4236;54.504;9.588;2023-04-15T10:31:19;42.37;;;38.87;;
8397;SDS011;4236;54.504;9.588;2023-04-15T10:33:49;44.27;;;40.57;;
8397;SDS011;4236;54.504;9.588;2023-04-15T10:36:18;42.57;;;39.00;;
8397;SDS011;4236;54.504;9.588;2023-04-15T10:38:46;41.67;;;38.43;;
8397;SDS011;4236;54.504;9.588;2023-04-15T10:41:14;42.50;;;38.73;;
8397;SDS011;4236;54.504;9.588;2023-04-15T10:43:47;45.50;;;41.60;;
8397;SDS011;4236;54.504;9.588;2023-04-15T10:46:17;44.33;;;40.63;;
8397;SDS011;4236;54.504;9.588;2023-04-15T10:48:46;43.67;;;40.17;;
8397;SDS011;4236;54.504;9.588;2023-04-15T10:51:16;43.43;;;39.83;;
8397;SDS011;4236;54.504;9.588;2023-04-15T10:53:55;45.57;;;41.80;;
8397;SDS011;4236;54.504;9.588;2023-04-15T10:56:24;43.10;;;39.23;;
8397;SDS011;4236;54.504;9.588;2023-04-15T10:58:51;44.70;;;41.10;;
8397;SDS011;4236;54.504;9.588;2023-04-15T11:01:19;42.73;;;38.77;;
8397;SDS011;4236;54.504;9.588;2023-04-15T11:03:49;44.73;;;41.23;;
8397;SDS011;4236;54.504;9.588;2023-04-15T11:06:18;44.23;;;40.53;;
8397;SDS011;4236;54.504;9.588;2023-04-15T11:08:53;43.77;;;40.23;;
8397;SDS011;4236;54.504;9.588;2023-04-15T11:14:33;46.60;;;42.80;;
8397;SDS011;4236;54.504;9.588;2023-04-15T11:17:06;45.80;;;41.87;;
8397;SDS011;4236;54.504;9.588;2023-04-15T11:19:34;47.70;;;43.37;;
8397;SDS011;4236;54.504;9.588;2023-04-15T11:22:08;44.00;;;40.70;;
8397;SDS011;4236;54.504;9.588;2023-04-15T11:24:45;45.97;;;42.07;;
8397;SDS011;4236;54.504;9.588;2023-04-15T11:27:19;49.60;;;45.50;;
8397;SDS011;4236;54.504;9.588;2023-04-15T11:29:47;45.03;;;41.33;;
8397;SDS011;4236;54.504;9.588;2023-04-15T11:32:15;44.23;;;40.63;;
8397;SDS011;4236;54.504;9.588;2023-04-15T11:34:44;46.30;;;42.50;;
8397;SDS011;4236;54.504;9.588;2023-04-15T11:37:15;45.10;;;41.60;;
8397;SDS011;4236;54.504;9.588;2023-04-15T11:39:42;42.60;;;39.50;;
8397;SDS011;4236;54.504;9.588;2023-04-15T11:42:15;43.03;;;39.50;;
8397;SDS011;4236;54.504;9.588;2023-04-15T11:44:43;44.63;;;41.23;;
8397;SDS011;4236;54.504;9.588;2023-04-15T11:47:20;42.70;;;39.47;;
8397;SDS011;4236;54.504;9.588;2023-04-15T11:49:49;41.67;;;38.47;;
8397;SDS011;4236;54.504;9.588;2023-04-15T11:52:18;42.83;;;39.43;;
8397;SDS011;4236;54.504;9.588;2023-04-15T11:54:45;45.80;;;42.17;;
8397;SDS011;4236;54.504;9.588;2023-04-15T11:57:13;42.37;;;39.10;;
8397;SDS011;4236;54.504;9.588;2023-04-15T11:59:41;41.30;;;38.03;;
8397;SDS011;4236;54.504;9.588;2023-04-15T12:02:11;42.30;;;39.30;;
8397;SDS011;4236;54.504;9.588;2023-04-15T12:04:39;46.03;;;42.60;;
8397;SDS011;4236;54.504;9.588;2023-04-15T12:07:08;45.93;;;42.07;;
8397;SDS011;4236;54.504;9.588;2023-04-15T12:09:37;42.43;;;39.40;;
8397;SDS011;4236;54.504;9.588;2023-04-15T12:12:05;44.10;;;40.70;;
8397;SDS011;4236;54.504;9.588;2023-04-15T12:14:33;44.70;;;41.30;;
8397;SDS011;4236;54.504;9.588;2023-04-15T12:17:01;43.30;;;40.03;;
8397;SDS011;4236;54.504;9.588;2023-04-15T12:19:30;44.60;;;41.20;;
8397;SDS011;4236;54.504;9.588;2023-04-15T12:22:02;45.60;;;42.10;;
8397;SDS011;4236;54.504;9.588;2023-04-15T12:24:31;46.50;;;42.70;;
8397;SDS011;4236;54.504;9.588;2023-04-15T12:27:03;45.60;;;41.53;;
8397;SDS011;4236;54.504;9.588;2023-04-15T12:29:32;44.30;;;41.00;;
8397;SDS011;4236;54.504;9.588;2023-04-15T12:32:03;43.73;;;40.33;;
8397;SDS011;4236;54.504;9.588;2023-04-15T12:34:32;45.63;;;41.93;;
8397;SDS011;4236;54.504;9.588;2023-04-15T12:37:01;43.13;;;39.83;;
8397;SDS011;4236;54.504;9.588;2023-04-15T12:39:30;44.27;;;40.83;;
8397;SDS011;4236;54.504;9.588;2023-04-15T12:42:02;43.27;;;40.07;;
8397;SDS011;4236;54.504;9.588;2023-04-15T12:44:32;42.47;;;39.03;;
8397;SDS011;4236;54.504;9.588;2023-04-15T12:47:01;41.70;;;38.30;;
8397;SDS011;4236;54.504;9.588;2023-04-15T12:49:29;41.77;;;38.67;;
8397;SDS011;4236;54.504;9.588;2023-04-15T12:51:58;42.50;;;39.27;;
8397;SDS011;4236;54.504;9.588;2023-04-15T12:54:26;40.90;;;38.00;;
8397;SDS011;4236;54.504;9.588;2023-04-15T12:56:55;41.47;;;38.30;;
8397;SDS011;4236;54.504;9.588;2023-04-15T12:59:24;41.73;;;38.47;;
8397;SDS011;4236;54.504;9.588;2023-04-15T13:01:52;42.40;;;39.30;;
8397;SDS011;4236;54.504;9.588;2023-04-15T13:04:20;42.30;;;38.80;;
8397;SDS011;4236;54.504;9.588;2023-04-15T13:06:48;43.43;;;39.97;;
8397;SDS011;4236;54.504;9.588;2023-04-15T13:09:16;41.50;;;38.20;;
8397;SDS011;4236;54.504;9.588;2023-04-15T13:11:44;41.97;;;38.60;;
8397;SDS011;4236;54.504;9.588;2023-04-15T13:14:12;42.67;;;39.27;;
8397;SDS011;4236;54.504;9.588;2023-04-15T13:16:41;40.90;;;37.80;;
8397;SDS011;4236;54.504;9.588;2023-04-15T13:19:09;42.60;;;39.40;;
8397;SDS011;4236;54.504;9.588;2023-04-15T13:21:37;41.43;;;38.57;;
8397;SDS011;4236;54.504;9.588;2023-04-15T13:24:04;44.07;;;40.60;;
8397;SDS011;4236;54.504;9.588;2023-04-15T13:26:33;42.63;;;39.53;;
8397;SDS011;4236;54.504;9.588;2023-04-15T13:29:01;41.27;;;38.27;;
8397;SDS011;4236;54.504;9.588;2023-04-15T13:31:29;40.30;;;37.30;;
8397;SDS011;4236;54.504;9.588;2023-04-15T13:33:58;41.57;;;38.63;;
8397;SDS011;4236;54.504;9.588;2023-04-15T13:36:26;42.53;;;39.40;;
8397;SDS011;4236;54.504;9.588;2023-04-15T13:38:53;40.00;;;37.20;;
8397;SDS011;4236;54.504;9.588;2023-04-15T13:41:22;40.83;;;37.77;;
8397;SDS011;4236;54.504;9.588;2023-04-15T13:43:49;38.93;;;36.23;;
8397;SDS011;4236;54.504;9.588;2023-04-15T13:46:17;38.23;;;35.43;;
8397;SDS011;4236;54.504;9.588;2023-04-15T13:48:46;40.27;;;37.27;;
8397;SDS011;4236;54.504;9.588;2023-04-15T13:51:15;37.87;;;34.77;;
8397;SDS011;4236;54.504;9.588;2023-04-15T13:53:43;38.43;;;35.70;;
8397;SDS011;4236;54.504;9.588;2023-04-15T13:56:11;39.03;;;36.23;;
8397;SDS011;4236;54.504;9.588;2023-04-15T13:58:38;38.07;;;35.47;;
8397;SDS011;4236;54.504;9.588;2023-04-15T14:01:07;38.47;;;35.77;;
8397;SDS011;4236;54.504;9.588;2023-04-15T14:03:34;37.30;;;34.73;;
8397;SDS011;4236;54.504;9.588;2023-04-15T14:06:03;36.47;;;33.97;;
8397;SDS011;4236;54.504;9.588;2023-04-15T14:08:32;36.90;;;34.40;;
8397;SDS011;4236;54.504;9.588;2023-04-15T14:11:00;35.27;;;32.87;;
8397;SDS011;4236;54.504;9.588;2023-04-15T14:13:28;36.60;;;34.00;;
8397;SDS011;4236;54.504;9.588;2023-04-15T14:15:55;37.77;;;35.07;;
8397;SDS011;4236;54.504;9.588;2023-04-15T14:18:23;37.53;;;34.90;;
8397;SDS011;4236;54.504;9.588;2023-04-15T14:20:51;37.10;;;34.50;;
8397;SDS011;4236;54.504;9.588;2023-04-15T14:23:19;37.87;;;35.10;;
8397;SDS011;4236;54.504;9.588;2023-04-15T14:25:48;38.07;;;35.27;;
8397;SDS011;4236;54.504;9.588;2023-04-15T14:28:16;37.50;;;34.80;;
8397;SDS011;4236;54.504;9.588;2023-04-15T14:30:44;39.97;;;36.80;;
8397;SDS011;4236;54.504;9.588;2023-04-15T14:33:13;38.40;;;35.60;;
8397;SDS011;4236;54.504;9.588;2023-04-15T14:35:40;38.37;;;35.43;;
8397;SDS011;4236;54.504;9.588;2023-04-15T14:38:08;38.83;;;35.93;;
8397;SDS011;4236;54.504;9.588;2023-04-15T14:40:36;36.57;;;34.07;;
8397;SDS011;4236;54.504;9.588;2023-04-15T14:43:05;38.20;;;35.50;;
8397;SDS011;4236;54.504;9.588;2023-04-15T14:45:33;38.03;;;35.23;;
8397;SDS011;4236;54.504;9.588;2023-04-15T14:48:01;37.70;;;34.90;;
8397;SDS011;4236;54.504;9.588;2023-04-15T14:50:29;38.07;;;35.23;;